Date,TemperatureHighF,TemperatureAvgF,TemperatureLowF,DewpointHighF,DewpointAvgF,DewpointLowF,HumidityHigh,HumidityAvg,HumidityLow,PressureMaxIn,PressureMinIn,WindSpeedMaxMPH,WindSpeedAvgMPH,GustSpeedMaxMPH,PrecipitationSumIn
2013-3-1,36,31,26,29,25,20,89,79,66,30.07,29.89,7,0,7,0.00
2013-3-2,33,28,24,23,21,18,83,75,63,30.06,30.00,11,1,11,0.00
2013-3-3,33,26,19,23,19,16,89,73,55,30.03,29.97,10,1,10,0.00
2013-3-7,37,31,21,29,26,20,95,82,69,30.34,30.28,6,0,6,0.04
2013-3-8,41,28,13,26,21,11,96,78,50,30.43,30.31,6,0,6,0.05
2013-3-9,44,36,24,35,29,21,91,77,61,30.31,29.86,10,0,10,0.01
2013-3-10,58,49,40,46,41,35,94,73,61,29.86,29.59,9,0,9,0.06
2013-3-11,54,45,35,49,42,32,99,91,65,29.67,29.42,14,1,14,0.06
2013-3-12,36,33,31,32,30,26,96,87,68,29.83,29.65,12,1,12,0.00
2013-3-18,35,33,0,34,32,0,97,93,82,29.65,29.50,15,1,15,0.03
2013-3-19,34,27,21,24,18,15,85,70,51,29.95,29.64,26,3,26,0.00
2013-3-20,29,23,18,20,16,11,91,74,59,29.96,29.89,17,2,17,0.00
2013-3-21,31,23,15,24,19,13,93,83,69,29.94,29.88,18,1,18,0.03
2013-3-22,40,29,19,24,20,14,93,71,41,29.99,29.92,10,1,10,0.00
2013-3-23,39,29,21,27,24,20,95,80,61,30.06,29.93,12,0,12,0.00
2013-3-24,38,32,25,28,26,22,91,78,63,29.94,29.52,12,1,12,0.00
2013-3-25,37,34,29,31,28,25,90,81,71,29.90,29.51,9,1,13,0.01
2013-3-26,43,35,32,33,30,28,91,81,58,30.12,29.90,15,1,15,0.00
2013-3-27,44,36,28,34,28,21,95,73,45,30.21,30.12,17,1,17,0.00
2013-3-28,51,37,24,31,25,21,92,65,38,30.24,30.19,11,0,11,0.00
2013-3-29,52,37,24,28,23,20,92,62,30,30.24,30.14,10,0,11,0.00
2013-3-30,57,41,24,36,29,21,92,65,41,30.16,29.81,8,0,8,0.00
2013-3-31,61,49,39,45,38,28,97,69,38,29.81,29.56,20,2,20,0.01